createdAt,value
2019-06-26T00:00:23.648Z,6.27
2019-06-26T00:02:54.153Z,5.93
2019-06-26T00:05:24.608Z,6.50
2019-06-26T00:07:55.146Z,6.03
2019-06-26T00:10:25.612Z,5.80
2019-06-26T00:12:56.101Z,6.53
2019-06-26T00:15:26.698Z,6.87
2019-06-26T00:17:57.159Z,6.63
2019-06-26T00:20:27.783Z,6.37
2019-06-26T00:22:58.250Z,6.37
2019-06-26T00:25:28.850Z,7.00
2019-06-26T00:27:59.338Z,7.03
2019-06-26T00:30:29.824Z,6.57
2019-06-26T00:33:00.273Z,6.60
2019-06-26T00:35:30.726Z,7.00
2019-06-26T00:38:01.213Z,6.93
2019-06-26T00:40:31.731Z,6.80
2019-06-26T00:43:02.222Z,7.40
2019-06-26T00:45:32.681Z,7.00
2019-06-26T00:48:03.173Z,7.20
2019-06-26T00:50:33.631Z,7.20
2019-06-26T00:53:04.225Z,7.53
2019-06-26T00:55:34.694Z,7.67
2019-06-26T00:58:05.385Z,6.93
2019-06-26T01:00:40.919Z,7.10
2019-06-26T01:03:11.380Z,7.83
2019-06-26T01:05:41.868Z,7.47
2019-06-26T01:08:12.316Z,7.40
2019-06-26T01:10:43.023Z,7.57
2019-06-26T01:13:13.691Z,7.80
2019-06-26T01:15:44.324Z,7.50
2019-06-26T01:18:14.814Z,7.97
2019-06-26T01:20:45.273Z,7.13
2019-06-26T01:23:15.756Z,5.97
2019-06-26T01:25:46.228Z,5.90
2019-06-26T01:28:16.719Z,5.70
2019-06-26T01:30:47.169Z,4.87
2019-06-26T01:33:17.665Z,5.47
2019-06-26T01:35:48.224Z,5.33
2019-06-26T01:38:18.725Z,5.80
2019-06-26T01:40:49.185Z,5.47
2019-06-26T01:43:19.684Z,5.10
2019-06-26T01:45:50.189Z,5.67
2019-06-26T01:48:20.643Z,5.80
2019-06-26T01:50:51.131Z,5.13
2019-06-26T01:53:21.634Z,5.33
2019-06-26T01:55:52.130Z,5.53
2019-06-26T01:58:22.600Z,5.27
2019-06-26T02:00:53.215Z,6.20
2019-06-26T02:03:23.741Z,5.37
2019-06-26T02:05:54.201Z,5.30
2019-06-26T02:08:24.697Z,5.93
2019-06-26T02:10:55.173Z,5.60
2019-06-26T02:13:25.626Z,5.50
2019-06-26T02:15:56.142Z,6.10
2019-06-26T02:18:45.683Z,6.13
2019-06-26T02:21:16.288Z,6.67
2019-06-26T02:23:46.850Z,6.30
2019-06-26T02:26:17.323Z,7.00
2019-06-26T02:28:47.805Z,6.60
2019-06-26T02:31:18.269Z,6.37
2019-06-26T02:33:48.751Z,6.77
2019-06-26T02:36:19.193Z,7.13
2019-06-26T02:38:49.726Z,7.47
2019-06-26T02:41:20.226Z,7.17
2019-06-26T02:43:50.908Z,6.57
2019-06-26T02:46:21.593Z,7.60
2019-06-26T02:48:52.067Z,7.80
2019-06-26T02:51:22.773Z,7.50
2019-06-26T02:53:53.328Z,7.10
2019-06-26T02:56:23.780Z,7.70
2019-06-26T02:58:54.309Z,7.60
2019-06-26T03:01:24.761Z,7.07
2019-06-26T03:03:55.257Z,7.57
2019-06-26T03:06:25.754Z,7.27
2019-06-26T03:08:56.218Z,8.53
2019-06-26T03:11:26.714Z,8.33
2019-06-26T03:13:57.173Z,7.87
2019-06-26T03:16:27.677Z,7.60
2019-06-26T03:18:58.181Z,8.00
2019-06-26T03:21:28.647Z,8.27
2019-06-26T03:23:59.133Z,7.47
2019-06-26T03:26:29.738Z,7.30
2019-06-26T03:29:00.244Z,7.53
2019-06-26T03:31:30.699Z,7.47
2019-06-26T03:34:01.249Z,6.50
2019-06-26T03:36:31.832Z,7.10
2019-06-26T03:39:02.456Z,7.20
2019-06-26T03:41:32.953Z,7.90
2019-06-26T03:44:03.413Z,7.00
2019-06-26T03:46:34.013Z,7.37
2019-06-26T03:49:04.605Z,7.40
2019-06-26T03:51:35.078Z,7.63
2019-06-26T03:54:05.570Z,7.77
2019-06-26T03:56:36.068Z,6.83
2019-06-26T03:59:06.580Z,7.83
2019-06-26T04:01:37.088Z,6.93
2019-06-26T04:04:07.531Z,7.93
2019-06-26T04:06:38.046Z,7.90
2019-06-26T04:09:08.645Z,8.53
2019-06-26T04:11:39.090Z,7.03
2019-06-26T04:14:09.589Z,7.70
2019-06-26T04:16:40.095Z,6.87
2019-06-26T04:19:10.580Z,7.70
2019-06-26T04:21:41.038Z,8.23
2019-06-26T04:24:11.538Z,7.57
2019-06-26T04:26:41.991Z,7.87
2019-06-26T04:29:12.478Z,6.47
2019-06-26T04:31:42.949Z,8.10
2019-06-26T04:34:13.453Z,7.00
2019-06-26T04:36:43.910Z,7.53
2019-06-26T04:39:14.413Z,7.47
2019-06-26T04:41:44.927Z,7.00
2019-06-26T04:44:15.407Z,7.87
2019-06-26T04:46:45.946Z,6.90
2019-06-26T04:49:16.406Z,6.17
2019-06-26T04:51:46.951Z,7.23
2019-06-26T04:54:17.441Z,7.00
2019-06-26T04:56:48.683Z,6.33
2019-06-26T04:59:19.863Z,6.70
2019-06-26T05:01:50.383Z,7.30
2019-06-26T05:04:20.855Z,7.27
2019-06-26T05:06:51.487Z,7.10
2019-06-26T05:09:26.660Z,6.30
2019-06-26T05:12:00.197Z,6.63
2019-06-26T05:14:30.683Z,6.97
2019-06-26T05:17:01.238Z,7.00
2019-06-26T05:19:32.433Z,6.97
2019-06-26T05:22:03.571Z,7.57
2019-06-26T05:24:34.053Z,7.17
2019-06-26T05:27:04.655Z,6.43
2019-06-26T05:29:35.448Z,6.23
2019-06-26T05:32:06.338Z,7.97
2019-06-26T05:34:36.919Z,8.30
2019-06-26T05:37:07.480Z,7.13
2019-06-26T05:39:38.253Z,6.97
2019-06-26T05:42:08.762Z,6.40
2019-06-26T05:44:39.337Z,7.67
2019-06-26T05:47:10.406Z,6.93
2019-06-26T05:49:40.876Z,7.07
2019-06-26T05:52:11.401Z,9.20
2019-06-26T05:54:41.873Z,7.57
2019-06-26T05:57:12.439Z,6.90
2019-06-26T05:59:42.939Z,7.67
2019-06-26T06:02:13.598Z,7.10
2019-06-26T06:04:44.140Z,7.93
2019-06-26T06:07:14.656Z,7.70
2019-06-26T06:09:56.438Z,7.80
2019-06-26T06:12:28.470Z,6.90
2019-06-26T06:15:01.831Z,7.17
2019-06-26T06:17:32.307Z,7.50
2019-06-26T06:20:02.979Z,7.70
2019-06-26T06:22:33.548Z,8.17
2019-06-26T06:25:04.934Z,7.10
2019-06-26T06:27:35.470Z,7.83
2019-06-26T06:30:07.019Z,8.10
2019-06-26T06:32:37.576Z,7.47
2019-06-26T06:35:10.023Z,7.57
2019-06-26T06:37:40.518Z,7.37
2019-06-26T06:40:11.387Z,7.30
2019-06-26T06:42:42.061Z,7.20
2019-06-26T06:45:13.005Z,7.90
2019-06-26T06:47:43.551Z,7.47
2019-06-26T06:50:14.414Z,7.60
2019-06-26T06:52:44.979Z,7.00
2019-06-26T06:55:15.902Z,7.07
2019-06-26T06:57:51.329Z,8.23
2019-06-26T07:00:22.510Z,9.77
2019-06-26T07:02:53.008Z,9.20
2019-06-26T07:05:23.534Z,9.00
2019-06-26T07:07:54.014Z,7.77
2019-06-26T07:10:24.650Z,9.53
2019-06-26T07:12:55.213Z,9.23
2019-06-26T07:15:25.870Z,11.07
2019-06-26T07:17:56.430Z,9.83
2019-06-26T07:20:27.198Z,9.33
2019-06-26T07:22:57.781Z,8.70
2019-06-26T07:25:28.289Z,8.33
2019-06-26T07:28:01.795Z,9.47
2019-06-26T07:30:31.014Z,8.33
2019-06-26T07:33:01.523Z,8.40
2019-06-26T07:38:03.569Z,7.87
2019-06-26T07:40:34.179Z,8.90
2019-06-26T07:43:06.269Z,7.90
2019-06-26T07:45:36.927Z,9.17
2019-06-26T07:48:07.636Z,8.07
2019-06-26T07:50:38.264Z,8.17
2019-06-26T07:53:08.757Z,8.33
2019-06-26T07:55:40.603Z,8.07
2019-06-26T07:58:11.308Z,8.53
2019-06-26T08:00:41.966Z,7.43
2019-06-26T08:03:12.426Z,8.50
2019-06-26T08:05:43.444Z,8.67
2019-06-26T08:08:14.892Z,7.93
2019-06-26T08:10:45.547Z,8.03
2019-06-26T08:13:16.513Z,8.17
2019-06-26T08:15:47.101Z,7.83
2019-06-26T08:18:17.750Z,7.93
2019-06-26T08:21:00.692Z,7.80
2019-06-26T08:23:20.579Z,8.27
2019-06-26T08:25:51.109Z,8.00
2019-06-26T08:28:21.658Z,7.70
2019-06-26T08:30:52.831Z,8.30
2019-06-26T08:33:23.611Z,7.60
2019-06-26T08:35:54.225Z,8.57
2019-06-26T08:38:24.828Z,9.60
2019-06-26T08:40:55.371Z,9.73
2019-06-26T08:43:25.956Z,9.80
2019-06-26T08:45:56.935Z,8.70
2019-06-26T08:48:39.107Z,8.15
2019-06-26T08:50:59.898Z,8.63
2019-06-26T08:53:30.378Z,9.60
2019-06-26T08:56:00.966Z,9.57
2019-06-26T08:58:31.505Z,8.40
2019-06-26T09:01:02.050Z,9.93
2019-06-26T09:03:32.618Z,8.43
2019-06-26T09:06:03.229Z,7.80
2019-06-26T09:08:33.742Z,8.03
2019-06-26T09:11:04.305Z,8.37
2019-06-26T09:13:34.810Z,8.50
2019-06-26T09:16:05.421Z,7.97
2019-06-26T09:18:36.374Z,8.40
2019-06-26T09:21:07.080Z,7.53
2019-06-26T09:23:37.694Z,7.67
2019-06-26T09:26:08.173Z,7.20
2019-06-26T09:28:38.864Z,8.37
2019-06-26T09:31:09.407Z,7.43
2019-06-26T09:33:39.889Z,7.83
2019-06-26T09:36:10.408Z,7.70
2019-06-26T09:38:41.146Z,7.30
2019-06-26T09:41:11.847Z,7.60
2019-06-26T09:43:42.296Z,7.57
2019-06-26T09:46:13.008Z,7.73
2019-06-26T09:48:52.822Z,7.17
2019-06-26T09:51:15.826Z,7.33
2019-06-26T09:53:48.006Z,7.23
2019-06-26T09:56:18.634Z,7.23
2019-06-26T09:58:49.324Z,7.90
2019-06-26T10:01:19.903Z,7.90
2019-06-26T10:03:50.402Z,7.67
2019-06-26T10:06:20.905Z,7.70
2019-06-26T10:08:54.375Z,7.30
2019-06-26T10:11:23.878Z,7.73
2019-06-26T10:13:54.493Z,7.20
2019-06-26T10:16:24.983Z,7.67
2019-06-26T10:19:09.601Z,7.60
2019-06-26T10:21:28.096Z,7.23
2019-06-26T10:23:58.743Z,7.47
2019-06-26T10:26:32.369Z,7.80
2019-06-26T10:29:01.566Z,7.50
2019-06-26T10:31:32.064Z,7.70
2019-06-26T10:34:02.584Z,7.13
2019-06-26T10:36:33.139Z,7.50
2019-06-26T10:39:04.080Z,7.37
2019-06-26T10:41:34.571Z,7.43
2019-06-26T10:44:05.391Z,7.00
2019-06-26T10:46:35.981Z,7.20
2019-06-26T10:49:06.780Z,7.40
2019-06-26T10:51:37.467Z,6.80
2019-06-26T10:54:08.127Z,7.63
2019-06-26T10:56:38.787Z,7.47
2019-06-26T10:59:09.464Z,6.80
2019-06-26T11:01:40.168Z,20.87
2019-06-26T11:04:10.723Z,18.70
2019-06-26T11:06:41.263Z,8.37
2019-06-26T11:09:11.868Z,9.17
2019-06-26T11:11:43.368Z,7.57
2019-06-26T11:14:14.196Z,6.50
2019-06-26T11:16:44.925Z,13.30
2019-06-26T11:19:15.512Z,7.13
2019-06-26T11:21:46.079Z,7.30
2019-06-26T11:24:17.198Z,6.20
2019-06-26T11:26:47.660Z,6.23
2019-06-26T11:29:18.181Z,5.80
2019-06-26T11:31:49.037Z,6.10
2019-06-26T11:34:19.844Z,6.00
2019-06-26T11:37:03.116Z,6.73
2019-06-26T11:39:23.724Z,6.70
2019-06-26T11:41:54.382Z,6.50
2019-06-26T11:44:25.298Z,6.50
2019-06-26T11:46:56.482Z,6.77
2019-06-26T11:49:27.012Z,6.80
2019-06-26T11:51:57.793Z,6.42
2019-06-26T11:54:28.421Z,6.53
2019-06-26T11:56:59.114Z,6.63
2019-06-26T11:59:29.673Z,6.80
2019-06-26T12:02:00.325Z,7.00
2019-06-26T12:04:30.866Z,6.58
2019-06-26T12:07:01.433Z,6.70
2019-06-26T12:09:31.987Z,6.70
2019-06-26T12:12:02.599Z,6.83
2019-06-26T12:14:33.096Z,7.15
2019-06-26T12:17:03.601Z,6.93
2019-06-26T12:19:34.085Z,7.50
2019-06-26T12:22:04.695Z,6.87
2019-06-26T12:24:35.217Z,7.67
2019-06-26T12:27:05.859Z,7.00
2019-06-26T12:29:36.340Z,7.53
2019-06-26T12:32:06.863Z,8.00
2019-06-26T12:34:37.479Z,8.37
2019-06-26T12:37:08.191Z,7.20
2019-06-26T12:39:38.709Z,7.23
2019-06-26T12:42:09.254Z,7.10
2019-06-26T12:44:39.827Z,7.53
2019-06-26T12:47:10.348Z,8.23
2019-06-26T12:49:40.962Z,12.20
2019-06-26T12:52:11.594Z,4.77
2019-06-26T12:54:42.187Z,5.13
2019-06-26T12:57:13.098Z,4.90
2019-06-26T12:59:56.930Z,3.70
2019-06-26T13:02:16.057Z,4.20
2019-06-26T13:04:46.622Z,6.70
2019-06-26T13:07:17.147Z,6.07
2019-06-26T13:09:47.625Z,6.13
2019-06-26T13:12:18.342Z,6.67
2019-06-26T13:14:49.169Z,6.70
2019-06-26T13:17:19.841Z,5.80
2019-06-26T13:19:50.471Z,5.73
2019-06-26T13:22:21.109Z,7.90
2019-06-26T13:24:51.676Z,7.73
2019-06-26T13:27:22.412Z,9.00
2019-06-26T13:29:52.948Z,5.97
2019-06-26T13:32:23.885Z,5.87
2019-06-26T13:34:54.434Z,5.83
2019-06-26T13:37:24.909Z,6.77
2019-06-26T13:39:55.424Z,6.00
2019-06-26T13:42:26.021Z,6.33
2019-06-26T13:44:56.532Z,5.73
2019-06-26T13:47:27.360Z,6.90
2019-06-26T13:49:57.938Z,8.00
2019-06-26T13:52:28.576Z,6.17
2019-06-26T13:54:59.294Z,7.33
2019-06-26T13:57:29.960Z,7.50
2019-06-26T14:00:00.498Z,8.47
2019-06-26T14:02:31.175Z,7.60
2019-06-26T14:05:01.919Z,8.17
2019-06-26T14:07:32.733Z,8.20
2019-06-26T14:10:03.378Z,9.00
2019-06-26T14:12:34.095Z,9.27
2019-06-26T14:15:04.771Z,9.67
2019-06-26T14:17:35.331Z,10.07
2019-06-26T14:20:07.727Z,9.23
2019-06-26T14:22:38.361Z,8.87
2019-06-26T14:25:09.277Z,9.00
2019-06-26T14:27:39.791Z,9.20
2019-06-26T14:30:10.766Z,9.40
2019-06-26T14:32:41.377Z,8.93
2019-06-26T14:35:11.929Z,8.03
2019-06-26T14:37:42.416Z,7.90
2019-06-26T14:40:13.066Z,7.70
2019-06-26T14:42:43.565Z,8.57
2019-06-26T14:45:14.226Z,7.00
2019-06-26T14:47:44.707Z,6.60
2019-06-26T14:50:16.400Z,6.20
2019-06-26T14:52:46.893Z,6.77
2019-06-26T14:55:17.571Z,6.37
2019-06-26T14:57:48.063Z,6.77
2019-06-26T15:00:19.054Z,6.93
2019-06-26T15:02:49.515Z,6.40
2019-06-26T15:05:20.169Z,7.03
2019-06-26T15:07:50.658Z,6.53
2019-06-26T15:10:21.253Z,5.87
2019-06-26T15:12:51.711Z,6.10
2019-06-26T15:15:22.300Z,6.27
2019-06-26T15:17:52.768Z,6.30
2019-06-26T15:20:23.353Z,5.50
2019-06-26T15:22:53.893Z,6.47
2019-06-26T15:25:24.375Z,6.23
2019-06-26T15:27:54.849Z,6.27
2019-06-26T15:30:25.490Z,6.83
2019-06-26T15:32:55.983Z,6.17
2019-06-26T15:35:26.433Z,6.33
2019-06-26T15:37:57.006Z,6.57
2019-06-26T15:40:27.580Z,6.23
2019-06-26T15:42:58.086Z,5.80
2019-06-26T15:45:28.526Z,6.00
2019-06-26T15:47:59.012Z,6.33
2019-06-26T15:50:29.598Z,5.90
2019-06-26T15:53:00.078Z,6.10
2019-06-26T15:55:30.557Z,6.07
2019-06-26T15:58:01.021Z,5.80
2019-06-26T16:00:31.559Z,6.00
2019-06-26T16:03:02.019Z,6.03
2019-06-26T16:05:32.536Z,6.07
2019-06-26T16:08:02.967Z,5.90
2019-06-26T16:10:34.711Z,6.00
2019-06-26T16:13:05.409Z,6.10
2019-06-26T16:15:36.398Z,6.50
2019-06-26T16:18:25.055Z,6.60
2019-06-26T16:20:55.545Z,6.30
2019-06-26T16:23:25.996Z,5.30
2019-06-26T16:25:56.436Z,6.00
2019-06-26T16:28:26.932Z,6.30
2019-06-26T16:30:57.391Z,6.23
2019-06-26T16:33:27.867Z,6.30
2019-06-26T16:35:58.473Z,6.90
2019-06-26T16:38:28.952Z,6.30
2019-06-26T16:40:59.400Z,6.80
2019-06-26T16:43:29.905Z,6.80
2019-06-26T16:46:00.350Z,6.60
2019-06-26T16:48:30.827Z,7.23
2019-06-26T16:51:01.274Z,7.07
2019-06-26T16:53:35.228Z,6.90
2019-06-26T16:56:03.949Z,7.30
2019-06-26T16:58:34.385Z,6.63
2019-06-26T17:01:05.017Z,7.00
2019-06-26T17:03:35.458Z,7.80
2019-06-26T17:06:05.919Z,7.70
2019-06-26T17:08:36.417Z,7.60
2019-06-26T17:11:07.059Z,7.20
2019-06-26T17:13:37.534Z,8.13
2019-06-26T17:16:08.025Z,8.20
2019-06-26T17:18:38.515Z,8.47
2019-06-26T17:21:08.956Z,8.97
2019-06-26T17:23:39.437Z,9.03
2019-06-26T17:26:09.874Z,8.53
2019-06-26T17:28:40.342Z,8.50
2019-06-26T17:31:10.830Z,8.50
2019-06-26T17:33:41.273Z,8.60
2019-06-26T17:36:11.773Z,8.57
2019-06-26T17:38:42.261Z,8.33
2019-06-26T17:41:12.788Z,8.70
2019-06-26T17:43:43.270Z,8.20
2019-06-26T17:46:13.714Z,8.93
2019-06-26T17:48:44.272Z,9.13
2019-06-26T17:51:14.930Z,9.00
2019-06-26T17:53:45.408Z,8.83
2019-06-26T17:56:15.842Z,9.53
2019-06-26T17:58:46.349Z,9.07
2019-06-26T18:01:16.825Z,8.87
2019-06-26T18:03:47.271Z,8.37
2019-06-26T18:06:17.868Z,9.00
2019-06-26T18:08:48.420Z,8.97
2019-06-26T18:11:18.864Z,10.20
2019-06-26T18:13:49.349Z,8.73
2019-06-26T18:16:19.831Z,9.23
2019-06-26T18:18:50.279Z,9.70
2019-06-26T18:21:20.833Z,9.40
2019-06-26T18:23:51.273Z,9.60
2019-06-26T18:26:21.789Z,9.70
2019-06-26T18:28:52.328Z,8.77
2019-06-26T18:31:22.772Z,9.10
2019-06-26T18:33:53.225Z,8.80
2019-06-26T18:36:23.666Z,9.37
2019-06-26T18:38:54.146Z,9.53
2019-06-26T18:41:24.635Z,9.83
2019-06-26T18:43:55.118Z,10.13
2019-06-26T18:46:25.584Z,8.17
2019-06-26T18:48:56.064Z,8.27
2019-06-26T18:51:26.523Z,8.30
2019-06-26T18:53:57.011Z,8.03
2019-06-26T18:56:27.480Z,8.30
2019-06-26T18:58:57.971Z,8.63
2019-06-26T19:01:28.606Z,8.60
2019-06-26T19:03:59.090Z,9.03
2019-06-26T19:06:29.585Z,8.50
2019-06-26T19:09:00.053Z,8.50
2019-06-26T19:11:30.560Z,8.60
2019-06-26T19:14:01.337Z,8.73
2019-06-26T19:16:31.852Z,8.80
2019-06-26T19:19:02.310Z,8.77
2019-06-26T19:21:36.894Z,8.20
2019-06-26T19:24:10.014Z,8.57
2019-06-26T19:26:37.363Z,8.30
2019-06-26T19:29:08.166Z,8.10
2019-06-26T19:31:38.640Z,8.77
2019-06-26T19:34:09.180Z,8.50
2019-06-26T19:36:49.550Z,8.63
2019-06-26T19:39:11.874Z,8.10
2019-06-26T19:41:42.362Z,8.60
2019-06-26T19:44:13.435Z,9.27
2019-06-26T19:46:44.188Z,8.47
2019-06-26T19:49:14.815Z,8.47
2019-06-26T19:51:45.549Z,8.60
2019-06-26T19:54:26.481Z,8.80
2019-06-26T19:56:48.266Z,8.90
2019-06-26T19:59:18.706Z,8.60
2019-06-26T20:01:51.384Z,8.43
2019-06-26T20:05:13.826Z,8.83
2019-06-26T20:07:44.061Z,8.80
2019-06-26T20:10:14.615Z,8.90
2019-06-26T20:12:44.802Z,9.43
2019-06-26T20:15:14.969Z,9.17
2019-06-26T20:17:45.146Z,9.47
2019-06-26T20:20:15.504Z,9.23
2019-06-26T20:22:45.722Z,9.93
2019-06-26T20:25:16.272Z,9.43
2019-06-26T20:27:46.483Z,9.20
2019-06-26T20:30:16.767Z,9.90
2019-06-26T20:32:46.954Z,10.20
2019-06-26T20:35:17.195Z,9.60
2019-06-26T20:37:47.316Z,8.60
2019-06-26T20:40:17.486Z,10.03
2019-06-26T20:42:47.635Z,8.97
2019-06-26T20:45:17.924Z,9.27
2019-06-26T20:47:48.082Z,8.67
2019-06-26T20:50:18.269Z,9.57
2019-06-26T20:52:48.448Z,9.27
2019-06-26T20:55:18.599Z,10.00
2019-06-26T20:57:48.736Z,9.10
2019-06-26T21:00:22.369Z,8.97
2019-06-26T21:02:54.029Z,9.57
2019-06-26T21:05:22.658Z,9.93
2019-06-26T21:07:52.804Z,9.17
2019-06-26T21:10:22.978Z,9.30
2019-06-26T21:12:53.167Z,9.00
2019-06-26T21:15:23.301Z,8.90
2019-06-26T21:17:53.474Z,9.50
2019-06-26T21:20:23.618Z,9.60
2019-06-26T21:22:53.794Z,9.63
2019-06-26T21:25:23.970Z,9.20
2019-06-26T21:27:54.137Z,9.40
2019-06-26T21:30:24.388Z,10.00
2019-06-26T21:32:54.532Z,9.77
2019-06-26T21:35:24.722Z,9.23
2019-06-26T21:37:54.878Z,8.63
2019-06-26T21:40:24.999Z,8.50
2019-06-26T21:42:55.174Z,8.20
2019-06-26T21:45:25.374Z,7.70
2019-06-26T21:47:55.514Z,8.30
2019-06-26T21:50:28.837Z,7.30
2019-06-26T21:52:57.785Z,7.20
2019-06-26T21:55:34.159Z,7.07
2019-06-26T21:58:00.145Z,7.17
2019-06-26T22:00:32.677Z,7.20
2019-06-26T22:03:03.019Z,6.83
2019-06-26T22:05:33.658Z,6.53
2019-06-26T22:08:04.068Z,6.97
2019-06-26T22:10:34.513Z,6.83
2019-06-26T22:13:05.524Z,7.30
2019-06-26T22:15:35.922Z,7.10
2019-06-26T22:18:06.287Z,6.90
2019-06-26T22:20:36.595Z,7.30
2019-06-26T22:23:06.948Z,7.10
2019-06-26T22:25:50.307Z,6.73
2019-06-26T22:28:09.321Z,6.70
2019-06-26T22:30:39.635Z,6.20
2019-06-26T22:33:10.023Z,6.60
2019-06-26T22:35:40.600Z,6.33
2019-06-26T22:38:11.021Z,6.93
2019-06-26T22:40:41.376Z,6.80
2019-06-26T22:43:11.694Z,6.33
2019-06-26T22:45:42.111Z,6.67
2019-06-26T22:48:12.517Z,7.10
2019-06-26T22:50:42.886Z,6.77
2019-06-26T22:53:13.365Z,7.23
2019-06-26T22:55:44.085Z,7.53
2019-06-26T22:58:14.566Z,7.60
2019-06-26T23:00:47.752Z,7.47
2019-06-26T23:03:17.181Z,7.70
2019-06-26T23:05:47.761Z,7.90
2019-06-26T23:08:18.214Z,7.73
2019-06-26T23:10:48.825Z,7.30
2019-06-26T23:13:19.237Z,7.90
2019-06-26T23:15:49.744Z,8.33
2019-06-26T23:18:20.273Z,7.93
2019-06-26T23:20:50.754Z,7.90
2019-06-26T23:23:21.191Z,8.30
2019-06-26T23:25:51.661Z,8.43
2019-06-26T23:28:22.118Z,9.10
2019-06-26T23:30:52.651Z,8.20
2019-06-26T23:33:23.093Z,8.90
2019-06-26T23:35:53.559Z,9.17
2019-06-26T23:38:24.170Z,8.83
2019-06-26T23:40:54.653Z,8.70
2019-06-26T23:43:25.132Z,8.60
2019-06-26T23:45:55.641Z,9.50
2019-06-26T23:48:26.105Z,8.97
2019-06-26T23:50:56.545Z,8.50
2019-06-26T23:53:27.033Z,8.10
2019-06-26T23:55:57.499Z,9.33
2019-06-26T23:58:28.395Z,8.80
